Time;durP1;ratioP1;P1;durP2;ratioP2;P2;SDS_P1;SDS_P2;PMS_P1;PMS_P2;Temp;Humidity;BMP_temperature;BMP_pressure;BME280_temperature;BME280_humidity;BME280_pressure;Samples;Min_cycle;Max_cycle;Signal;HPM_P1;HPM_P2
2023/09/26 00:01:32;;;;;;;8.15;5.60;;;15.80;99.90;;;;;;5065729;28;20045;-57
2023/09/26 00:03:57;;;;;;;7.60;5.50;;;15.80;99.90;;;;;;5064938;28;20048;-57
2023/09/26 00:06:24;;;;;;;6.97;4.85;;;15.70;99.90;;;;;;5065967;28;20040;-57
2023/09/26 00:08:52;;;;;;;6.95;4.97;;;15.60;99.90;;;;;;5065835;28;20040;-58
2023/09/26 00:11:18;;;;;;;10.93;6.47;;;15.50;99.90;;;;;;5065018;28;20088;-57
2023/09/26 00:13:44;;;;;;;7.53;5.30;;;15.40;99.90;;;;;;5074324;28;20036;-56
2023/09/26 00:16:11;;;;;;;9.60;6.00;;;15.30;99.90;;;;;;5085171;28;20043;-57
2023/09/26 00:18:40;;;;;;;7.43;5.65;;;15.30;99.90;;;;;;5085986;28;20044;-56
2023/09/26 00:21:06;;;;;;;7.50;5.97;;;15.20;99.90;;;;;;5086078;28;20117;-57
2023/09/26 00:23:31;;;;;;;8.07;5.57;;;15.30;99.90;;;;;;5085733;28;20067;-55
2023/09/26 00:25:57;;;;;;;7.32;5.85;;;15.20;99.90;;;;;;5085833;28;20051;-57
2023/09/26 00:28:23;;;;;;;8.15;5.60;;;15.20;99.90;;;;;;5085921;28;20082;-57
2023/09/26 00:30:49;;;;;;;7.70;6.00;;;15.10;99.90;;;;;;5084474;28;20104;-56
2023/09/26 00:33:14;;;;;;;7.82;5.70;;;15.00;99.90;;;;;;5085880;28;20048;-57
2023/09/26 00:35:40;;;;;;;8.63;5.97;;;15.10;99.90;;;;;;5085568;28;20108;-57
2023/09/26 00:38:05;;;;;;;10.30;5.43;;;14.90;99.90;;;;;;5085525;28;20040;-59
2023/09/26 00:40:31;;;;;;;9.52;5.90;;;14.90;99.90;;;;;;5085682;28;20397;-55
2023/09/26 00:43:00;;;;;;;8.98;5.82;;;14.90;99.90;;;;;;5085562;28;20040;-58
2023/09/26 00:45:27;;;;;;;6.50;5.38;;;14.90;99.90;;;;;;5084761;28;20130;-57
2023/09/26 00:47:53;;;;;;;8.90;6.18;;;14.80;99.90;;;;;;5085071;28;20036;-57
2023/09/26 00:50:22;;;;;;;8.05;6.03;;;14.80;99.90;;;;;;5085443;28;20047;-57
2023/09/26 00:52:51;;;;;;;9.68;6.22;;;14.70;99.90;;;;;;5085471;28;20065;-57
2023/09/26 00:55:23;;;;;;;7.68;5.97;;;14.70;99.90;;;;;;5084749;28;20052;-56
2023/09/26 00:57:50;;;;;;;8.63;5.70;;;14.70;99.90;;;;;;5073468;28;20047;-56
2023/09/26 01:00:19;;;;;;;10.68;6.22;;;14.70;99.90;;;;;;5082722;28;20517;-57
2023/09/26 01:02:45;;;;;;;13.90;6.43;;;14.70;99.90;;;;;;5084397;28;20055;-57
2023/09/26 01:05:11;;;;;;;10.40;6.50;;;14.60;99.90;;;;;;5083453;28;20055;-57
2023/09/26 01:07:38;;;;;;;8.63;6.22;;;14.60;99.90;;;;;;5083803;28;20417;-57
2023/09/26 01:10:07;;;;;;;9.10;5.93;;;14.70;99.90;;;;;;5085134;28;20049;-57
2023/09/26 01:12:34;;;;;;;7.85;6.45;;;14.50;99.90;;;;;;5085046;28;20139;-57
2023/09/26 01:15:00;;;;;;;8.85;6.22;;;14.40;99.90;;;;;;5083627;28;20047;-57
2023/09/26 01:17:29;;;;;;;11.48;6.35;;;14.40;99.90;;;;;;5084673;28;20044;-57
2023/09/26 01:19:55;;;;;;;7.97;6.20;;;14.40;99.90;;;;;;5084219;28;20044;-57
2023/09/26 01:22:24;;;;;;;8.98;6.55;;;14.80;99.90;;;;;;5084793;28;20042;-57
2023/09/26 01:24:51;;;;;;;8.32;6.60;;;14.40;99.90;;;;;;5083399;28;20147;-55
2023/09/26 01:27:17;;;;;;;8.40;6.57;;;14.40;99.90;;;;;;5084058;28;20109;-57
2023/09/26 01:29:43;;;;;;;7.53;6.68;;;14.30;99.90;;;;;;5083803;28;20497;-57
2023/09/26 01:32:08;;;;;;;9.30;7.05;;;14.30;99.90;;;;;;5084908;28;20067;-57
2023/09/26 01:34:34;;;;;;;9.07;7.28;;;14.30;99.90;;;;;;5084235;28;20188;-55
2023/09/26 01:36:59;;;;;;;9.05;6.80;;;14.20;99.90;;;;;;5083913;28;20036;-56
2023/09/26 01:39:25;;;;;;;7.75;6.32;;;14.20;99.90;;;;;;5075488;28;20047;-57
2023/09/26 01:41:51;;;;;;;8.23;7.03;;;14.40;99.90;;;;;;5065732;28;20063;-57
2023/09/26 01:44:16;;;;;;;7.60;6.43;;;14.10;99.90;;;;;;5068555;28;20040;-57
2023/09/26 01:46:42;;;;;;;8.73;6.75;;;14.20;99.90;;;;;;5083708;28;20116;-58
2023/09/26 01:49:08;;;;;;;7.45;6.20;;;14.10;99.90;;;;;;5080408;28;20055;-57
2023/09/26 01:51:33;;;;;;;9.80;6.50;;;14.00;99.90;;;;;;5064220;28;20453;-56
2023/09/26 01:53:59;;;;;;;18.05;7.10;;;14.00;99.90;;;;;;5062958;28;20039;-56
2023/09/26 01:56:25;;;;;;;10.30;6.97;;;14.00;99.90;;;;;;5066341;28;20422;-57
2023/09/26 01:58:50;;;;;;;9.80;6.95;;;14.00;99.90;;;;;;5070697;28;20037;-57
2023/09/26 02:01:17;;;;;;;8.75;6.82;;;13.90;99.90;;;;;;5063165;28;20041;-57
2023/09/26 02:03:42;;;;;;;11.52;7.40;;;13.90;99.90;;;;;;5063484;28;20044;-57
2023/09/26 02:06:08;;;;;;;9.23;6.88;;;13.90;99.90;;;;;;5064052;28;20051;-57
2023/09/26 02:08:34;;;;;;;8.85;6.63;;;13.90;99.90;;;;;;5083170;28;20648;-58
2023/09/26 02:10:59;;;;;;;9.70;7.15;;;13.80;99.90;;;;;;5082925;28;20059;-58
2023/09/26 02:13:25;;;;;;;10.48;6.75;;;13.80;99.90;;;;;;5082251;28;20152;-57
2023/09/26 02:15:51;;;;;;;9.25;6.65;;;13.70;99.90;;;;;;5082839;28;20047;-58
2023/09/26 02:18:17;;;;;;;8.40;7.43;;;13.70;99.90;;;;;;5073661;28;20048;-57
2023/09/26 02:20:42;;;;;;;8.10;6.97;;;13.60;99.90;;;;;;5063382;28;20412;-57
2023/09/26 02:23:08;;;;;;;7.78;6.97;;;13.60;99.90;;;;;;5072828;28;20383;-57
2023/09/26 02:25:34;;;;;;;10.75;7.10;;;13.60;99.90;;;;;;5063100;28;20052;-57
2023/09/26 02:28:00;;;;;;;8.95;7.40;;;13.70;99.90;;;;;;5070563;28;20086;-56
2023/09/26 02:30:28;;;;;;;10.90;7.00;;;13.60;99.90;;;;;;5081611;28;20044;-58
2023/09/26 02:32:54;;;;;;;10.65;7.30;;;13.60;99.90;;;;;;5083733;28;20808;-56
2023/09/26 02:35:20;;;;;;;9.68;7.53;;;13.70;99.90;;;;;;5082521;28;20062;-56
2023/09/26 02:37:46;;;;;;;9.60;7.35;;;13.50;99.90;;;;;;5064655;28;20051;-57
2023/09/26 02:40:12;;;;;;;8.00;7.20;;;13.50;99.90;;;;;;5061926;28;20117;-57
2023/09/26 02:42:45;;;;;;;8.30;7.35;;;13.50;99.90;;;;;;5062969;28;20040;-57
2023/09/26 02:45:14;;;;;;;8.98;7.53;;;13.50;99.90;;;;;;5062282;28;20044;-57
2023/09/26 02:47:40;;;;;;;8.73;7.68;;;13.40;99.90;;;;;;5060792;28;20055;-57
2023/09/26 02:50:07;;;;;;;9.88;7.30;;;13.40;99.90;;;;;;5060934;28;20063;-57
2023/09/26 02:52:33;;;;;;;11.43;7.50;;;13.40;99.90;;;;;;5063089;28;20056;-58
2023/09/26 02:55:00;;;;;;;12.75;8.30;;;13.40;99.90;;;;;;5062744;28;20048;-58
2023/09/26 02:57:25;;;;;;;10.95;7.30;;;13.40;99.90;;;;;;5068571;28;20113;-58
2023/09/26 02:59:51;;;;;;;8.88;7.68;;;13.40;99.90;;;;;;5082561;28;20550;-57
2023/09/26 03:02:17;;;;;;;8.80;7.80;;;13.40;99.90;;;;;;5083569;28;20580;-57
2023/09/26 03:04:47;;;;;;;8.43;7.47;;;13.30;99.90;;;;;;5082742;28;20090;-57
2023/09/26 03:07:12;;;;;;;9.45;7.90;;;13.30;99.90;;;;;;5086180;28;20051;-57
2023/09/26 03:09:38;;;;;;;11.25;7.75;;;13.30;99.90;;;;;;5087426;28;20040;-57
2023/09/26 03:12:06;;;;;;;10.05;7.80;;;13.30;99.90;;;;;;5086583;28;20486;-57
2023/09/26 03:14:32;;;;;;;9.60;7.90;;;13.20;99.90;;;;;;5085472;28;20119;-59
2023/09/26 03:16:57;;;;;;;10.35;7.97;;;13.20;99.90;;;;;;5087066;28;20561;-56
2023/09/26 03:19:23;;;;;;;9.43;8.23;;;13.20;99.90;;;;;;5086908;28;20607;-57
2023/09/26 03:21:52;;;;;;;11.02;8.48;;;13.20;99.90;;;;;;5086299;28;20040;-56
2023/09/26 03:24:18;;;;;;;10.60;8.02;;;13.20;99.90;;;;;;5085170;28;20438;-57
2023/09/26 03:26:44;;;;;;;8.88;7.97;;;13.20;99.90;;;;;;5087503;28;20097;-57
2023/09/26 03:29:10;;;;;;;9.23;8.15;;;13.20;99.90;;;;;;5085494;28;20406;-55
2023/09/26 03:31:38;;;;;;;9.52;8.27;;;13.10;99.90;;;;;;5087076;28;20045;-57
2023/09/26 03:34:03;;;;;;;9.23;7.78;;;13.10;99.90;;;;;;5086588;28;20035;-57
2023/09/26 03:36:29;;;;;;;10.63;8.10;;;13.00;99.90;;;;;;5086535;28;20390;-57
2023/09/26 03:38:55;;;;;;;10.27;8.30;;;13.10;99.90;;;;;;5086156;28;20137;-58
2023/09/26 03:41:20;;;;;;;10.15;8.30;;;13.00;99.90;;;;;;5080645;28;20528;-57
2023/09/26 03:43:46;;;;;;;9.48;7.88;;;13.00;99.90;;;;;;5069688;28;20048;-57
2023/09/26 03:46:12;;;;;;;10.35;8.68;;;13.40;99.90;;;;;;5066562;28;20196;-56
2023/09/26 03:48:37;;;;;;;11.85;9.02;;;13.00;99.90;;;;;;5064202;28;20053;-56
2023/09/26 03:51:10;;;;;;;10.80;8.18;;;13.00;99.90;;;;;;5066164;28;20198;-56
2023/09/26 03:53:37;;;;;;;9.50;8.10;;;12.90;99.90;;;;;;5066066;28;20125;-57
2023/09/26 03:56:03;;;;;;;10.35;9.00;;;12.90;99.90;;;;;;5068063;28;20048;-57
2023/09/26 03:58:30;;;;;;;11.25;8.85;;;12.90;99.90;;;;;;5075149;28;20072;-55
2023/09/26 04:00:55;;;;;;;10.43;9.00;;;13.00;99.90;;;;;;5065306;28;20052;-57
2023/09/26 04:03:21;;;;;;;10.20;9.07;;;12.90;99.90;;;;;;5065386;28;20036;-57
2023/09/26 04:05:55;;;;;;;11.32;9.02;;;12.90;99.90;;;;;;5066126;28;20230;-57
2023/09/26 04:08:20;;;;;;;10.02;8.52;;;12.80;99.90;;;;;;5066216;28;20060;-58
2023/09/26 04:10:46;;;;;;;9.80;8.70;;;12.90;99.90;;;;;;5066746;28;20090;-57
2023/09/26 04:13:11;;;;;;;9.48;8.48;;;12.80;99.90;;;;;;5065333;28;20490;-57
2023/09/26 04:15:38;;;;;;;10.20;8.95;;;12.80;99.90;;;;;;5065215;28;20048;-55
2023/09/26 04:18:05;;;;;;;11.35;8.85;;;12.80;99.90;;;;;;5065500;28;20049;-57
2023/09/26 04:20:30;;;;;;;11.18;8.82;;;12.80;99.90;;;;;;5064596;28;20048;-57
2023/09/26 04:22:56;;;;;;;12.32;8.77;;;12.70;99.90;;;;;;5065404;28;20135;-57
2023/09/26 04:25:22;;;;;;;9.65;8.65;;;12.70;99.90;;;;;;5079416;28;20131;-58
2023/09/26 04:27:47;;;;;;;10.23;9.18;;;12.60;99.90;;;;;;5085436;28;20218;-56
2023/09/26 04:30:13;;;;;;;11.80;9.23;;;12.70;99.90;;;;;;5084395;28;20044;-56
2023/09/26 04:32:38;;;;;;;11.70;9.68;;;12.60;99.90;;;;;;5085773;28;21212;-56
2023/09/26 04:35:05;;;;;;;9.63;8.65;;;12.60;99.90;;;;;;5072691;28;20032;-55
2023/09/26 04:37:30;;;;;;;10.05;9.05;;;12.60;99.90;;;;;;5065368;28;20072;-53
2023/09/26 04:39:56;;;;;;;12.63;9.38;;;12.70;99.90;;;;;;5064919;28;20345;-56
2023/09/26 04:42:21;;;;;;;11.15;9.65;;;12.70;99.90;;;;;;5065503;28;20093;-54
2023/09/26 04:44:47;;;;;;;9.93;8.93;;;12.60;99.90;;;;;;5064622;28;20080;-56
2023/09/26 04:47:12;;;;;;;9.85;8.85;;;12.80;99.90;;;;;;5064723;28;20044;-54
2023/09/26 04:49:39;;;;;;;12.52;9.82;;;12.60;99.90;;;;;;5064862;28;20037;-55
2023/09/26 04:52:05;;;;;;;11.05;8.93;;;12.70;99.90;;;;;;5064798;28;20040;-56
2023/09/26 04:54:30;;;;;;;11.80;9.20;;;12.70;99.90;;;;;;5064444;28;20059;-57
2023/09/26 04:56:56;;;;;;;14.23;8.85;;;12.60;99.90;;;;;;5071205;28;20040;-56
2023/09/26 04:59:21;;;;;;;10.55;9.43;;;12.60;99.90;;;;;;5068098;28;20052;-56
2023/09/26 05:01:48;;;;;;;10.98;8.77;;;12.80;99.90;;;;;;5065056;28;20043;-56
2023/09/26 05:04:14;;;;;;;10.65;9.23;;;12.60;99.90;;;;;;5064738;28;20083;-58
2023/09/26 05:06:40;;;;;;;11.57;9.30;;;12.90;99.90;;;;;;5064131;28;20051;-57
2023/09/26 05:09:06;;;;;;;12.02;9.60;;;12.60;99.90;;;;;;5065225;28;20239;-58
2023/09/26 05:11:32;;;;;;;14.13;9.57;;;12.50;99.90;;;;;;5065097;28;20067;-58
2023/09/26 05:13:59;;;;;;;13.23;10.38;;;12.50;99.90;;;;;;5063440;28;20605;-59
2023/09/26 05:16:25;;;;;;;10.35;9.25;;;12.50;99.90;;;;;;5064316;28;20048;-58
2023/09/26 05:18:50;;;;;;;13.25;9.70;;;12.50;99.90;;;;;;5065176;28;20401;-58
2023/09/26 05:21:16;;;;;;;10.38;9.27;;;12.50;99.90;;;;;;5064136;28;20040;-58
2023/09/26 05:23:42;;;;;;;11.07;9.55;;;12.50;99.90;;;;;;5062972;28;20052;-58
2023/09/26 05:26:09;;;;;;;12.57;10.25;;;12.50;99.90;;;;;;5064030;28;20074;-58
2023/09/26 05:28:35;;;;;;;12.32;9.82;;;12.50;99.90;;;;;;5062834;28;20072;-57
2023/09/26 05:31:01;;;;;;;12.77;9.45;;;12.50;99.90;;;;;;5064377;28;20611;-58
2023/09/26 05:33:26;;;;;;;14.73;9.80;;;12.50;99.90;;;;;;5064191;28;20039;-58
2023/09/26 05:35:55;;;;;;;10.48;9.38;;;12.50;99.90;;;;;;5067848;28;20040;-57
2023/09/26 05:38:21;;;;;;;12.80;10.23;;;12.50;99.90;;;;;;5064725;28;20051;-57
2023/09/26 05:40:47;;;;;;;12.80;10.13;;;12.70;99.90;;;;;;5063580;28;20099;-57
2023/09/26 05:43:13;;;;;;;13.77;10.50;;;12.60;99.90;;;;;;5064414;28;20059;-58
2023/09/26 05:45:39;;;;;;;12.38;10.07;;;12.50;99.90;;;;;;5071305;28;20039;-58
2023/09/26 05:48:04;;;;;;;11.05;9.32;;;12.50;99.90;;;;;;5084370;28;20036;-58
2023/09/26 05:50:30;;;;;;;11.88;10.07;;;12.40;99.90;;;;;;5083449;28;20116;-57
2023/09/26 05:52:56;;;;;;;11.20;10.02;;;12.50;99.90;;;;;;5084274;28;20040;-59
2023/09/26 05:55:22;;;;;;;14.60;9.88;;;12.40;99.90;;;;;;5071189;28;20056;-57
2023/09/26 05:57:48;;;;;;;12.88;10.18;;;12.40;99.90;;;;;;5071781;28;20075;-56
2023/09/26 06:00:14;;;;;;;12.15;9.82;;;12.40;99.90;;;;;;5081676;28;20078;-56
2023/09/26 06:02:40;;;;;;;10.52;9.43;;;12.50;99.90;;;;;;5083914;28;20048;-58
2023/09/26 06:05:06;;;;;;;11.40;9.82;;;12.60;99.90;;;;;;5083983;28;20123;-58
2023/09/26 06:07:32;;;;;;;11.10;9.93;;;12.60;99.90;;;;;;5083374;28;20123;-58
2023/09/26 06:09:58;;;;;;;11.32;10.07;;;12.60;99.90;;;;;;5083475;28;20349;-58
2023/09/26 06:12:24;;;;;;;13.73;10.18;;;12.70;99.90;;;;;;5068022;28;20036;-58
2023/09/26 06:14:50;;;;;;;11.65;10.32;;;12.70;99.90;;;;;;5062030;28;20053;-53
2023/09/26 06:17:16;;;;;;;12.05;10.00;;;12.80;99.90;;;;;;5063096;28;20047;-57
2023/09/26 06:19:47;;;;;;;17.80;10.82;;;12.70;99.90;;;;;;5062341;28;20426;-58
2023/09/26 06:22:16;;;;;;;14.98;11.13;;;12.80;99.90;;;;;;5064036;28;20036;-58
2023/09/26 06:24:42;;;;;;;13.48;10.40;;;12.90;99.90;;;;;;5062658;28;20358;-58
2023/09/26 06:27:08;;;;;;;14.40;11.32;;;12.90;99.90;;;;;;5074238;28;20178;-57
2023/09/26 06:29:38;;;;;;;12.43;11.13;;;13.00;99.90;;;;;;5082685;28;20434;-55
2023/09/26 06:32:04;;;;;;;11.45;10.20;;;13.00;99.90;;;;;;5080797;28;20109;-59
2023/09/26 06:34:31;;;;;;;13.57;10.85;;;13.10;99.90;;;;;;5072756;28;20036;-58
2023/09/26 06:36:57;;;;;;;14.10;10.77;;;13.10;99.90;;;;;;5076274;28;20068;-58
2023/09/26 06:39:24;;;;;;;13.07;10.52;;;13.10;99.90;;;;;;5063848;28;20440;-58
2023/09/26 06:41:49;;;;;;;14.52;11.05;;;13.20;99.90;;;;;;5066226;28;20049;-58
2023/09/26 06:44:15;;;;;;;13.63;11.18;;;13.50;99.90;;;;;;5066727;28;20036;-58
2023/09/26 06:46:41;;;;;;;12.82;10.55;;;13.30;99.90;;;;;;5066104;28;20082;-57
2023/09/26 06:49:07;;;;;;;11.40;10.20;;;13.30;99.90;;;;;;5067047;28;20660;-56
2023/09/26 06:51:33;;;;;;;12.43;10.90;;;13.30;99.90;;;;;;5067626;28;20062;-57
2023/09/26 06:54:02;;;;;;;13.77;10.57;;;13.40;99.90;;;;;;5067143;28;20127;-58
2023/09/26 06:56:28;;;;;;;11.63;10.43;;;13.40;99.90;;;;;;5070281;28;20036;-58
2023/09/26 06:58:54;;;;;;;11.82;10.63;;;13.40;99.90;;;;;;5074524;28;20386;-58
2023/09/26 07:01:19;;;;;;;13.40;10.85;;;13.50;99.90;;;;;;5066792;28;20024;-57
2023/09/26 07:03:46;;;;;;;11.50;10.32;;;13.50;99.90;;;;;;5066978;28;20422;-58
2023/09/26 07:06:13;;;;;;;13.15;10.88;;;13.50;99.90;;;;;;5066879;28;20070;-59
2023/09/26 07:08:40;;;;;;;13.65;10.98;;;13.50;99.90;;;;;;5067014;28;20044;-58
2023/09/26 07:11:06;;;;;;;12.50;10.55;;;13.50;99.90;;;;;;5065608;28;20094;-56
2023/09/26 07:13:34;;;;;;;13.85;11.25;;;13.60;99.90;;;;;;5066179;28;20467;-58
2023/09/26 07:16:03;;;;;;;13.30;10.65;;;13.70;99.90;;;;;;5066097;28;20105;-58
2023/09/26 07:18:30;;;;;;;13.10;11.45;;;13.70;99.90;;;;;;5066800;28;21019;-57
2023/09/26 07:20:59;;;;;;;11.70;10.00;;;13.70;99.90;;;;;;5066878;28;20044;-57
2023/09/26 07:23:25;;;;;;;12.85;11.05;;;13.80;99.90;;;;;;5066187;28;20447;-59
2023/09/26 07:25:51;;;;;;;12.27;9.93;;;13.80;99.90;;;;;;5066722;28;20090;-59
2023/09/26 07:28:17;;;;;;;12.18;10.88;;;14.00;99.90;;;;;;5066232;28;20037;-59
2023/09/26 07:30:44;;;;;;;12.55;10.63;;;14.10;99.90;;;;;;5066651;28;20483;-58
2023/09/26 07:33:10;;;;;;;13.68;10.10;;;14.00;99.90;;;;;;5065920;28;20045;-57
2023/09/26 07:35:36;;;;;;;11.52;10.32;;;14.10;99.90;;;;;;5067272;28;20046;-58
2023/09/26 07:38:01;;;;;;;11.18;9.95;;;14.40;99.90;;;;;;5066883;28;20040;-57
2023/09/26 07:40:27;;;;;;;12.30;9.63;;;14.10;99.90;;;;;;5066868;28;20032;-57
2023/09/26 07:42:52;;;;;;;11.75;10.55;;;14.20;99.90;;;;;;5066158;28;20040;-59
2023/09/26 07:45:18;;;;;;;12.68;10.20;;;14.20;99.90;;;;;;5065943;28;20041;-58
2023/09/26 07:47:44;;;;;;;12.25;9.70;;;14.40;99.90;;;;;;5070769;28;20105;-59
2023/09/26 07:50:10;;;;;;;11.60;10.40;;;14.50;99.90;;;;;;5083519;28;20072;-57
2023/09/26 07:52:36;;;;;;;11.80;10.10;;;14.60;99.90;;;;;;5086165;28;20070;-55
2023/09/26 07:55:02;;;;;;;12.95;9.95;;;14.60;99.90;;;;;;5082546;28;20043;-54
2023/09/26 07:57:28;;;;;;;11.55;10.27;;;14.70;99.90;;;;;;5077839;28;20660;-57
2023/09/26 07:59:54;;;;;;;12.98;9.88;;;14.80;99.90;;;;;;5064425;28;20088;-54
2023/09/26 08:02:20;;;;;;;11.10;9.52;;;14.90;99.90;;;;;;5066022;28;20371;-56
2023/09/26 08:04:46;;;;;;;12.45;10.60;;;14.90;99.90;;;;;;5066049;28;20237;-57
2023/09/26 08:07:12;;;;;;;11.13;9.30;;;15.10;99.90;;;;;;5084340;28;20076;-57
2023/09/26 08:09:38;;;;;;;13.07;9.65;;;15.20;99.90;;;;;;5084163;28;20099;-56
2023/09/26 08:12:04;;;;;;;10.85;9.75;;;15.20;99.90;;;;;;5085545;28;20048;-57
2023/09/26 08:14:30;;;;;;;11.10;9.85;;;15.40;99.90;;;;;;5084849;28;20051;-57
2023/09/26 08:16:55;;;;;;;12.98;9.82;;;15.50;99.90;;;;;;5070492;28;20487;-58
2023/09/26 08:19:21;;;;;;;11.10;9.90;;;15.60;99.90;;;;;;5066277;28;20062;-53
2023/09/26 08:21:47;;;;;;;15.20;9.68;;;15.70;99.90;;;;;;5065859;28;20592;-58
2023/09/26 08:24:12;;;;;;;10.93;9.57;;;15.70;99.90;;;;;;5065476;28;20057;-57
2023/09/26 08:26:38;;;;;;;13.15;9.45;;;15.90;99.90;;;;;;5067852;28;20059;-57
2023/09/26 08:29:07;;;;;;;9.80;8.73;;;16.20;99.90;;;;;;5073635;28;20048;-57
2023/09/26 08:31:34;;;;;;;10.25;9.15;;;16.00;99.90;;;;;;5065186;28;20120;-57
2023/09/26 08:34:00;;;;;;;12.30;9.73;;;16.00;99.90;;;;;;5063538;28;20121;-55
2023/09/26 08:36:25;;;;;;;10.95;9.45;;;16.10;99.90;;;;;;5064865;28;20045;-56
2023/09/26 08:38:51;;;;;;;11.65;9.80;;;16.20;99.90;;;;;;5071237;28;20097;-54
2023/09/26 08:41:18;;;;;;;13.40;9.93;;;16.30;99.90;;;;;;5076141;28;20048;-52
2023/09/26 08:43:45;;;;;;;11.60;9.45;;;16.50;99.90;;;;;;5063414;28;20445;-52
2023/09/26 08:46:11;;;;;;;10.95;9.38;;;16.60;99.90;;;;;;5063309;28;20058;-54
2023/09/26 08:48:38;;;;;;;11.48;9.50;;;16.60;99.90;;;;;;5083809;28;20036;-54
2023/09/26 08:51:04;;;;;;;10.52;8.85;;;16.70;99.90;;;;;;5081078;28;20044;-55
2023/09/26 08:53:30;;;;;;;13.02;9.00;;;16.80;99.90;;;;;;5083015;28;20722;-54
2023/09/26 08:55:56;;;;;;;11.63;8.98;;;16.80;99.90;;;;;;5081366;28;20051;-55
2023/09/26 08:58:23;;;;;;;11.43;8.40;;;16.90;99.90;;;;;;5072322;28;20044;-55
2023/09/26 09:00:50;;;;;;;11.00;9.13;;;17.10;99.90;;;;;;5064061;28;20037;-52
2023/09/26 09:03:16;;;;;;;13.00;8.35;;;17.40;99.90;;;;;;5063665;28;20105;-55
2023/09/26 09:05:42;;;;;;;9.45;8.45;;;17.60;99.90;;;;;;5078404;28;20056;-56
2023/09/26 09:08:08;;;;;;;9.65;8.40;;;17.80;99.90;;;;;;5084188;28;20386;-52
2023/09/26 09:10:56;;;;;;;11.80;7.97;;;17.80;99.90;;;;;;5084346;28;20036;-56
2023/09/26 09:13:33;;;;;;;11.13;8.35;;;17.80;99.90;;;;;;5084031;28;20044;-55
2023/09/26 09:16:18;;;;;;;9.93;8.60;;;17.70;99.90;;;;;;5084509;28;20040;-54
2023/09/26 09:18:46;;;;;;;;;;;17.70;99.90;;;;;;5075840;28;20044;-54
2023/09/26 09:21:27;;;;;;;10.85;8.15;;;17.60;99.90;;;;;;5079259;28;19926;-55
2023/09/26 09:23:55;;;;;;;9.75;8.02;;;17.80;99.90;;;;;;5063736;28;20048;-54
2023/09/26 09:26:24;;;;;;;10.23;7.90;;;18.00;99.90;;;;;;5070926;28;20432;-56
2023/09/26 09:28:55;;;;;;;10.23;8.48;;;18.20;99.90;;;;;;5082210;28;20047;-53
2023/09/26 09:31:22;;;;;;;9.70;8.15;;;18.30;99.90;;;;;;5084057;28;20351;-52
2023/09/26 09:33:56;;;;;;;12.48;8.70;;;18.40;99.90;;;;;;5083177;28;20051;-52
2023/09/26 09:36:22;;;;;;;9.65;8.30;;;18.60;99.90;;;;;;5078814;28;20048;-52
2023/09/26 09:38:48;;;;;;;11.35;8.52;;;18.90;99.90;;;;;;5071890;28;20028;-55
2023/09/26 09:41:14;;;;;;;10.82;7.63;;;19.20;99.90;;;;;;5063834;28;20483;-55
2023/09/26 09:43:39;;;;;;;13.45;8.18;;;19.70;99.90;;;;;;5060392;28;20086;-56
2023/09/26 09:46:08;;;;;;;9.48;7.47;;;19.80;99.90;;;;;;5079230;28;20141;-53
2023/09/26 09:48:45;;;;;;;14.90;8.07;;;19.70;99.90;;;;;;5063344;28;20045;-54
2023/09/26 09:51:13;;;;;;;8.65;7.68;;;19.50;99.90;;;;;;5062418;28;20083;-56
2023/09/26 09:53:42;;;;;;;10.63;8.30;;;19.30;99.90;;;;;;5063058;28;20471;-55
2023/09/26 09:56:09;;;;;;;12.57;8.50;;;19.20;99.90;;;;;;5050445;28;20139;-54
2023/09/26 09:58:44;;;;;;;10.25;8.23;;;19.10;99.90;;;;;;5053257;28;20090;-54
2023/09/26 10:01:12;;;;;;;10.23;8.23;;;19.00;99.90;;;;;;5061757;28;20448;-55
2023/09/26 10:03:38;;;;;;;9.88;7.57;;;19.20;99.90;;;;;;5075185;28;20036;-55
2023/09/26 10:06:06;;;;;;;11.80;8.27;;;19.40;99.90;;;;;;5066560;28;20036;-52
2023/09/26 10:08:33;;;;;;;9.90;7.50;;;19.30;99.90;;;;;;5062731;28;20044;-56
2023/09/26 10:10:59;;;;;;;11.50;7.45;;;19.40;99.90;;;;;;5063151;28;20048;-57
2023/09/26 10:13:26;;;;;;;9.88;7.40;;;19.40;99.90;;;;;;5062155;28;20041;-56
2023/09/26 10:16:04;;;;;;;9.38;8.30;;;19.40;99.90;;;;;;5061548;28;20078;-54
2023/09/26 10:18:29;;;;;;;8.68;7.60;;;19.30;99.90;;;;;;5063248;28;20076;-56
2023/09/26 10:20:55;;;;;;;10.98;8.50;;;19.30;99.90;;;;;;5065003;28;20470;-57
2023/09/26 10:23:22;;;;;;;11.27;7.47;;;19.50;99.90;;;;;;5073873;28;20051;-55
2023/09/26 10:25:49;;;;;;;7.90;7.03;;;19.60;99.90;;;;;;5060600;28;20040;-56
2023/09/26 10:28:16;;;;;;;8.45;6.85;;;19.90;99.90;;;;;;5060970;28;20045;-57
2023/09/26 10:30:46;;;;;;;7.93;7.03;;;20.00;99.90;;;;;;5061549;28;20072;-56
2023/09/26 10:33:13;;;;;;;11.38;6.75;;;20.10;99.90;;;;;;5062375;28;20032;-56
2023/09/26 10:35:43;;;;;;;13.80;7.05;;;20.10;99.90;;;;;;5060905;28;20095;-56
2023/09/26 10:38:19;;;;;;;8.30;6.32;;;20.10;99.90;;;;;;5063626;28;20052;-56
2023/09/26 10:40:46;;;;;;;9.55;6.35;;;19.90;99.90;;;;;;5073841;28;20036;-52
2023/09/26 10:43:11;;;;;;;7.45;5.70;;;19.90;99.90;;;;;;5082760;28;20043;-56
2023/09/26 10:45:41;;;;;;;8.10;7.03;;;19.80;99.90;;;;;;5083098;28;20046;-56
2023/09/26 10:48:07;;;;;;;8.23;6.10;;;19.80;99.90;;;;;;5082701;28;20036;-56
2023/09/26 10:50:32;;;;;;;10.32;6.97;;;19.90;99.90;;;;;;5082142;28;20112;-56
2023/09/26 10:52:59;;;;;;;7.22;6.05;;;20.10;99.90;;;;;;5081604;28;20139;-56
2023/09/26 10:55:25;;;;;;;9.40;5.82;;;20.10;99.90;;;;;;5081880;28;20631;-57
2023/09/26 10:57:51;;;;;;;7.45;6.00;;;20.10;99.90;;;;;;5071790;28;20603;-52
2023/09/26 11:00:17;;;;;;;7.10;5.63;;;20.30;99.90;;;;;;5062990;28;20128;-55
2023/09/26 11:02:46;;;;;;;7.20;5.45;;;20.50;99.90;;;;;;5063105;28;20776;-56
2023/09/26 11:05:13;;;;;;;8.25;6.82;;;20.60;99.90;;;;;;5062048;28;20115;-54
2023/09/26 11:07:41;;;;;;;8.13;6.32;;;20.70;99.90;;;;;;5062954;28;20040;-55
2023/09/26 11:10:11;;;;;;;8.90;6.50;;;20.60;99.90;;;;;;5065580;28;20044;-50
2023/09/26 11:12:37;;;;;;;8.23;5.93;;;20.60;99.90;;;;;;5075133;28;20072;-53
2023/09/26 11:15:03;;;;;;;8.95;6.55;;;20.70;99.90;;;;;;5080078;28;20086;-56
2023/09/26 11:17:29;;;;;;;9.20;6.50;;;20.60;99.50;;;;;;5076032;28;20062;-54
2023/09/26 11:19:59;;;;;;;9.25;6.45;;;20.50;99.90;;;;;;5082785;28;20052;-56
2023/09/26 11:22:27;;;;;;;11.85;6.07;;;20.50;99.90;;;;;;5081778;28;20063;-57
2023/09/26 11:25:06;;;;;;;9.30;5.47;;;20.70;99.90;;;;;;5080993;28;20060;-55
2023/09/26 11:27:37;;;;;;;6.28;5.15;;;20.70;99.70;;;;;;5083051;28;20055;-56
2023/09/26 11:30:03;;;;;;;7.78;5.40;;;20.80;99.80;;;;;;5085677;28;20537;-57
2023/09/26 11:32:29;;;;;;;7.55;4.93;;;20.90;99.40;;;;;;5084711;28;20040;-54
2023/09/26 11:34:55;;;;;;;7.78;5.25;;;21.00;99.30;;;;;;5086015;28;20115;-56
2023/09/26 11:37:23;;;;;;;8.45;5.45;;;21.20;99.20;;;;;;5080592;28;20242;-56
2023/09/26 11:39:54;;;;;;;9.48;5.15;;;21.10;99.10;;;;;;5077387;28;20051;-57
2023/09/26 11:42:19;;;;;;;10.93;5.15;;;21.00;98.80;;;;;;5085236;28;20044;-57
2023/09/26 11:44:53;;;;;;;8.20;5.00;;;20.90;98.70;;;;;;5085983;28;20117;-53
2023/09/26 11:47:21;;;;;;;7.53;4.53;;;20.90;99.20;;;;;;5085628;28;20434;-52
2023/09/26 11:49:46;;;;;;;6.75;4.25;;;20.90;99.50;;;;;;5085738;28;20106;-52
2023/09/26 11:52:12;;;;;;;6.47;4.93;;;20.90;99.60;;;;;;5086134;28;20048;-51
2023/09/26 11:54:39;;;;;;;7.30;4.80;;;21.00;98.90;;;;;;5085362;28;20036;-56
2023/09/26 11:57:04;;;;;;;8.45;4.72;;;21.10;98.20;;;;;;5078059;28;20109;-56
2023/09/26 11:59:30;;;;;;;7.35;4.90;;;21.00;98.10;;;;;;5068417;28;20044;-54
2023/09/26 12:01:58;;;;;;;7.60;4.55;;;20.90;97.80;;;;;;5066017;28;20043;-56
2023/09/26 12:04:25;;;;;;;7.63;5.30;;;20.80;97.90;;;;;;5065102;28;20102;-54
2023/09/26 12:06:50;;;;;;;8.52;4.47;;;20.80;98.10;;;;;;5073703;28;20807;-56
2023/09/26 12:09:21;;;;;;;9.20;4.88;;;20.70;98.60;;;;;;5068681;28;20052;-55
2023/09/26 12:11:53;;;;;;;7.78;4.45;;;20.70;98.60;;;;;;5064830;28;20041;-52
2023/09/26 12:14:19;;;;;;;7.10;4.78;;;20.70;98.80;;;;;;5066468;28;20048;-55
2023/09/26 12:16:49;;;;;;;5.43;4.25;;;20.70;98.20;;;;;;5084971;28;20048;-56
2023/09/26 12:19:15;;;;;;;7.78;5.18;;;20.80;98.30;;;;;;5084174;28;20047;-56
2023/09/26 12:21:41;;;;;;;8.35;4.50;;;20.80;98.10;;;;;;5082691;28;20506;-53
2023/09/26 12:24:07;;;;;;;7.30;5.28;;;20.80;98.20;;;;;;5077940;28;20437;-52
2023/09/26 12:26:32;;;;;;;7.57;5.40;;;20.80;97.70;;;;;;5085322;28;20097;-55
2023/09/26 12:28:58;;;;;;;7.97;5.13;;;20.80;98.00;;;;;;5076562;28;20076;-51
2023/09/26 12:31:24;;;;;;;5.18;4.68;;;20.80;98.20;;;;;;5064781;28;20115;-52
2023/09/26 12:33:49;;;;;;;5.78;4.68;;;20.70;98.20;;;;;;5065523;28;20048;-53
2023/09/26 12:36:15;;;;;;;6.68;4.40;;;20.70;98.70;;;;;;5074760;28;20468;-57
2023/09/26 12:38:41;;;;;;;5.43;4.15;;;20.70;98.70;;;;;;5075793;28;20082;-50